createdAt,value
2022-09-28T00:00:05.305Z,100474.34
2022-09-28T00:02:42.294Z,100477.75
2022-09-28T00:05:15.485Z,100472.41
2022-09-28T00:07:45.237Z,100478.72
2022-09-28T00:10:15.554Z,100481.47
2022-09-28T00:12:45.912Z,100482.31
2022-09-28T00:15:15.747Z,100496.06
2022-09-28T00:17:47.126Z,100488.94
2022-09-28T00:20:19.554Z,100496.84
2022-09-28T00:22:49.384Z,100496.06
2022-09-28T00:25:19.188Z,100499.31
2022-09-28T00:27:52.927Z,100503.19
2022-09-28T00:30:22.834Z,100504.31
2022-09-28T00:32:52.836Z,100503.19
2022-09-28T00:35:22.748Z,100506.75
2022-09-28T00:37:53.091Z,100510.00
2022-09-28T00:40:23.744Z,100507.25
2022-09-28T00:42:54.042Z,100511.94
2022-09-28T00:45:26.524Z,100516.81
2022-09-28T00:48:01.430Z,100517.94
2022-09-28T00:50:36.167Z,100527.81
2022-09-28T00:53:15.826Z,100525.06
2022-09-28T00:55:49.257Z,100529.44
2022-09-28T00:58:24.272Z,100523.44
2022-09-28T01:00:56.258Z,100527.03
2022-09-28T01:03:28.519Z,100529.44
2022-09-28T01:06:00.458Z,100536.06
2022-09-28T01:08:32.271Z,100539.66
2022-09-28T01:11:02.481Z,100541.59
2022-09-28T01:13:34.313Z,100554.56
2022-09-28T01:16:31.481Z,100560.84
2022-09-28T01:19:28.485Z,100564.13
2022-09-28T01:22:08.290Z,100565.44
2022-09-28T01:24:41.829Z,100563.00
2022-09-28T01:27:15.823Z,100568.50
2022-09-28T01:29:50.296Z,100571.25
2022-09-28T01:32:20.076Z,100571.75
2022-09-28T01:35:05.479Z,100570.28
2022-09-28T01:37:47.600Z,100576.94
2022-09-28T01:40:18.334Z,100576.13
2022-09-28T01:42:51.948Z,100592.31
2022-09-28T01:45:33.418Z,100593.16
2022-09-28T01:48:05.288Z,100595.41
2022-09-28T01:50:38.607Z,100589.56
2022-09-28T01:53:14.410Z,100587.66
2022-09-28T01:55:48.265Z,100584.91
2022-09-28T01:58:35.985Z,100578.25
2022-09-28T02:01:08.190Z,100587.31
2022-09-28T02:03:42.096Z,100582.66
2022-09-28T02:06:15.945Z,100583.44
2022-09-28T02:08:53.345Z,100592.22
2022-09-28T02:11:29.166Z,100594.97
2022-09-28T02:14:04.705Z,100589.13
2022-09-28T02:16:38.874Z,100591.88
2022-09-28T02:19:11.165Z,100597.38
2022-09-28T02:21:41.133Z,100596.25
2022-09-28T02:24:21.520Z,100593.50
2022-09-28T02:26:54.461Z,100600.97
2022-09-28T02:29:24.146Z,100603.22
2022-09-28T02:31:55.000Z,100603.41
2022-09-28T02:34:25.057Z,100591.88
2022-09-28T02:36:54.997Z,100608.91
2022-09-28T02:39:24.932Z,100596.25
2022-09-28T02:41:58.393Z,100608.91
2022-09-28T02:44:50.854Z,100613.28
2022-09-28T02:47:30.949Z,100615.75
2022-09-28T02:50:07.412Z,100619.31
2022-09-28T02:52:55.919Z,100614.63
2022-09-28T02:55:44.653Z,100617.66
2022-09-28T02:58:18.283Z,100616.25
2022-09-28T03:00:53.976Z,100614.63
2022-09-28T03:03:27.867Z,100611.88
2022-09-28T03:06:02.457Z,100615.41
2022-09-28T03:08:45.468Z,100619.31
2022-09-28T03:11:26.028Z,100603.09
2022-09-28T03:13:56.033Z,100613.78
2022-09-28T03:16:34.222Z,100614.63
2022-09-28T03:19:04.944Z,100607.50
2022-09-28T03:21:35.450Z,100600.84
2022-09-28T03:24:08.099Z,100600.03
2022-09-28T03:26:37.943Z,100592.59
2022-09-28T03:29:08.971Z,100597.28
2022-09-28T03:31:40.344Z,100587.09
2022-09-28T03:34:10.659Z,100570.56
2022-09-28T03:36:40.594Z,100575.22
2022-09-28T03:39:10.728Z,100570.56
2022-09-28T03:41:41.713Z,100566.69
2022-09-28T03:44:11.631Z,100575.41
2022-09-28T03:46:41.272Z,100563.59
2022-09-28T03:49:13.165Z,100553.38
2022-09-28T03:51:42.991Z,100559.72
2022-09-28T03:54:12.634Z,100545.94
2022-09-28T03:56:42.832Z,100551.44
2022-09-28T03:59:12.570Z,100543.19
2022-09-28T04:01:42.939Z,100546.75
2022-09-28T04:04:16.922Z,100546.75
2022-09-28T04:06:48.251Z,100539.59
2022-09-28T04:09:19.327Z,100522.28
2022-09-28T04:12:03.269Z,100527.16
2022-09-28T04:14:35.475Z,100516.44
2022-09-28T04:17:08.348Z,100520.03
2022-09-28T04:19:38.978Z,100518.91
2022-09-28T04:22:31.807Z,100518.91
2022-09-28T04:25:02.211Z,100503.19
2022-09-28T04:27:51.133Z,100504.81
2022-09-28T04:30:21.532Z,100508.88
2022-09-28T04:32:51.767Z,100503.19
2022-09-28T04:35:21.581Z,100494.63
2022-09-28T04:37:51.226Z,100489.59
2022-09-28T04:40:21.052Z,100486.84
2022-09-28T04:42:58.443Z,100489.09
2022-09-28T04:45:31.430Z,100479.72
2022-09-28T04:48:11.271Z,100469.50
2022-09-28T04:51:13.161Z,100475.00
2022-09-28T04:53:42.897Z,100466.75
2022-09-28T04:56:14.598Z,100475.81
2022-09-28T04:58:52.451Z,100470.31
2022-09-28T05:01:26.139Z,100460.59
2022-09-28T05:04:01.997Z,100453.13
2022-09-28T05:07:10.664Z,100452.00
2022-09-28T05:09:41.302Z,100444.56
2022-09-28T05:12:11.916Z,100441.47
2022-09-28T05:14:42.341Z,100438.72
2022-09-28T05:17:13.535Z,100428.53
2022-09-28T05:20:05.394Z,100424.16
2022-09-28T05:22:38.409Z,100417.97
2022-09-28T05:25:10.505Z,100417.19
2022-09-28T05:28:04.548Z,100419.94
2022-09-28T05:30:44.386Z,100402.28
2022-09-28T05:33:40.361Z,100401.94
2022-09-28T05:36:15.801Z,100397.28
2022-09-28T05:38:46.320Z,100395.31
2022-09-28T05:41:18.075Z,100391.41
2022-09-28T05:43:48.203Z,100374.91
2022-09-28T05:46:18.548Z,100375.72
2022-09-28T05:48:50.457Z,100369.56
2022-09-28T05:51:21.437Z,100372.66
2022-09-28T05:53:52.448Z,100356.97
2022-09-28T05:56:23.121Z,100364.56
2022-09-28T05:58:55.253Z,100366.50
2022-09-28T06:01:26.953Z,100346.41
2022-09-28T06:03:59.850Z,100344.97
2022-09-28T06:06:30.128Z,100342.22
2022-09-28T06:08:59.822Z,100330.38
2022-09-28T06:11:51.119Z,100326.47
2022-09-28T06:14:34.420Z,100324.56
2022-09-28T06:17:04.191Z,100325.34
2022-09-28T06:19:34.344Z,100323.41
2022-09-28T06:22:22.775Z,100320.97
2022-09-28T06:25:00.675Z,100315.94
2022-09-28T06:27:30.551Z,100309.63
2022-09-28T06:30:00.193Z,100304.94
2022-09-28T06:32:31.991Z,100303.47
2022-09-28T06:35:01.914Z,100301.03
2022-09-28T06:37:32.145Z,100296.03
2022-09-28T06:40:04.076Z,100297.16
2022-09-28T06:42:33.982Z,100284.16
2022-09-28T06:45:36.359Z,100275.59
2022-09-28T06:48:28.243Z,100277.88
2022-09-28T06:50:58.962Z,100279.47
2022-09-28T06:53:48.710Z,100259.72
2022-09-28T06:56:41.732Z,100256.97
2022-09-28T06:59:13.220Z,100268.47
2022-09-28T07:01:43.219Z,100258.25
2022-09-28T07:04:45.258Z,100256.63
2022-09-28T07:07:35.813Z,100251.94
2022-09-28T07:10:33.005Z,100247.22
2022-09-28T07:16:16.427Z,100238.94
2022-09-28T07:18:46.318Z,100237.34
2022-09-28T07:21:27.464Z,100238.16
2022-09-28T07:24:02.695Z,100231.16
2022-09-28T07:27:26.798Z,100239.78
2022-09-28T07:30:20.326Z,100232.78
2022-09-28T07:33:06.277Z,100223.72
2022-09-28T07:35:53.053Z,100222.59
2022-09-28T07:38:24.910Z,100217.09
2022-09-28T07:41:14.090Z,100223.06
2022-09-28T07:43:51.954Z,100212.03
2022-09-28T07:46:22.865Z,100211.72
2022-09-28T07:49:06.972Z,100204.25
2022-09-28T07:52:13.189Z,100215.28
2022-09-28T07:55:07.033Z,100211.06
2022-09-28T07:58:12.293Z,100204.75
2022-09-28T08:01:10.128Z,100204.44
2022-09-28T08:03:41.347Z,100196.97
2022-09-28T08:06:13.380Z,100190.97
2022-09-28T08:08:46.797Z,100200.38
2022-09-28T08:11:20.017Z,100187.91
2022-09-28T08:14:16.295Z,100187.06
2022-09-28T08:17:13.640Z,100188.22
2022-09-28T08:20:05.511Z,100185.94
2022-09-28T08:22:35.282Z,100180.75
2022-09-28T08:25:05.512Z,100184.31
2022-09-28T08:27:36.660Z,100180.75
2022-09-28T08:30:08.395Z,100179.94
2022-09-28T08:33:10.269Z,100185.13
2022-09-28T08:35:48.196Z,100180.44
2022-09-28T08:38:49.691Z,100176.88
2022-09-28T08:41:38.745Z,100180.91
2022-09-28T08:44:28.237Z,100179.28
2022-09-28T08:47:42.697Z,100173.78
2022-09-28T08:50:44.463Z,100171.38
2022-09-28T08:53:26.095Z,100170.53
2022-09-28T08:56:14.608Z,100173.28
2022-09-28T08:58:48.022Z,100173.28
2022-09-28T09:01:21.717Z,100172.81
2022-09-28T09:03:52.195Z,100166.66
2022-09-28T09:06:40.726Z,100171.50
2022-09-28T09:09:42.049Z,100173.78
2022-09-28T09:12:29.491Z,100176.19
2022-09-28T09:15:18.298Z,100178.63
2022-09-28T09:18:16.638Z,100175.41
2022-09-28T09:21:02.407Z,100175.41
2022-09-28T09:24:00.876Z,100177.31
2022-09-28T09:26:33.692Z,100175.41
2022-09-28T09:29:14.373Z,100174.25
2022-09-28T09:31:50.075Z,100189.19
2022-09-28T09:34:20.891Z,100182.03
2022-09-28T09:37:05.837Z,100185.28
2022-09-28T09:40:10.504Z,100193.06
2022-09-28T09:43:13.877Z,100184.47
2022-09-28T09:45:56.144Z,100187.56
2022-09-28T09:49:03.768Z,100189.53
2022-09-28T09:51:43.460Z,100189.53
2022-09-28T09:54:17.499Z,100197.78
2022-09-28T09:57:10.901Z,100188.69
2022-09-28T09:59:51.476Z,100201.81
2022-09-28T10:02:43.921Z,100200.19
2022-09-28T10:05:33.770Z,100199.06
2022-09-28T10:08:14.660Z,100202.13
2022-09-28T10:10:54.234Z,100208.13
2022-09-28T10:13:24.790Z,100210.56
2022-09-28T10:15:58.143Z,100213.34
2022-09-28T10:18:33.830Z,100205.38
2022-09-28T10:21:44.000Z,100217.22
2022-09-28T10:24:29.498Z,100218.84
2022-09-28T10:27:02.115Z,100217.53
2022-09-28T10:29:38.249Z,100220.63
2022-09-28T10:32:20.365Z,100219.50
2022-09-28T10:34:51.128Z,100223.88
2022-09-28T10:37:26.296Z,100223.88
2022-09-28T10:40:06.464Z,100229.03
2022-09-28T10:42:38.886Z,100232.94
2022-09-28T10:45:16.662Z,100226.63
2022-09-28T10:47:47.689Z,100233.75
2022-09-28T10:50:29.957Z,100240.41
2022-09-28T10:53:23.837Z,100242.50
2022-09-28T10:56:07.853Z,100242.81
2022-09-28T10:58:44.100Z,100251.91
2022-09-28T11:01:26.187Z,100246.41
2022-09-28T11:04:07.197Z,100249.16
2022-09-28T11:06:39.789Z,100237.66
2022-09-28T11:09:31.114Z,100240.41
2022-09-28T11:12:09.482Z,100244.78
2022-09-28T11:14:42.650Z,100238.44
2022-09-28T11:17:20.747Z,100241.19
2022-09-28T11:19:50.555Z,100240.41
2022-09-28T11:22:34.017Z,100237.31
2022-09-28T11:25:17.542Z,100240.91
2022-09-28T11:27:55.216Z,100244.78
2022-09-28T13:04:55.549Z,100406.13
2022-09-28T13:07:45.043Z,100410.50
2022-09-28T13:10:29.459Z,100410.00
2022-09-28T13:13:02.297Z,100396.38
2022-09-28T13:15:39.259Z,100388.47
2022-09-28T13:18:09.654Z,100390.88
2022-09-28T13:20:48.422Z,100393.19
2022-09-28T13:23:18.726Z,100396.25
2022-09-28T13:25:53.111Z,100401.13
2022-09-28T13:28:27.220Z,100395.94
2022-09-28T13:33:39.330Z,100401.66
2022-09-28T13:36:27.962Z,100385.41
2022-09-28T13:38:59.188Z,100375.53
2022-09-28T13:41:31.453Z,100372.81
2022-09-28T13:44:11.015Z,100367.16
2022-09-28T13:47:00.069Z,100364.69
2022-09-28T13:49:48.208Z,100354.38
2022-09-28T13:52:36.340Z,100354.03
2022-09-28T13:55:16.864Z,100357.75
2022-09-28T13:57:50.762Z,100358.69
2022-09-28T14:00:27.084Z,100374.25
2022-09-28T14:03:09.175Z,100388.97
2022-09-28T14:05:57.583Z,100396.41
2022-09-28T14:08:34.483Z,100402.09
2022-09-28T14:11:27.329Z,100400.47
2022-09-28T14:14:01.610Z,100416.34
2022-09-28T14:16:35.694Z,100415.97
2022-09-28T14:19:06.138Z,100409.00
2022-09-28T14:21:42.357Z,100420.22
2022-09-28T14:24:24.345Z,100416.50
2022-09-28T14:27:03.421Z,100411.03
2022-09-28T14:29:35.102Z,100419.34
2022-09-28T14:32:23.723Z,100439.44
2022-09-28T14:35:02.273Z,100442.06
2022-09-28T14:37:55.373Z,100462.47
2022-09-28T14:40:48.712Z,100478.34
2022-09-28T14:43:27.084Z,100498.94
2022-09-28T14:46:13.579Z,100496.63
2022-09-28T14:48:57.325Z,100493.53
2022-09-28T14:51:28.160Z,100502.25
2022-09-28T14:54:05.248Z,100496.75
2022-09-28T14:56:43.513Z,100510.22
2022-09-28T14:59:17.333Z,100508.25
2022-09-28T15:01:53.955Z,100516.22
2022-09-28T15:04:26.456Z,100523.34
2022-09-28T15:06:56.785Z,100522.97
2022-09-28T15:09:34.174Z,100528.50
2022-09-28T15:12:05.684Z,100528.50
2022-09-28T15:14:38.316Z,100515.69
2022-09-28T15:17:15.687Z,100510.81
2022-09-28T15:19:48.905Z,100507.91
2022-09-28T15:22:19.698Z,100501.75
2022-09-28T15:25:02.419Z,100492.66
2022-09-28T15:27:40.190Z,100490.06
2022-09-28T15:30:19.922Z,100495.09
2022-09-28T15:32:49.839Z,100496.34
2022-09-28T15:35:28.291Z,100500.88
2022-09-28T15:37:58.650Z,100491.44
2022-09-28T15:40:36.389Z,100499.81
2022-09-28T15:43:22.879Z,100503.09
2022-09-28T15:46:21.633Z,100505.34
2022-09-28T15:48:55.429Z,100507.75
2022-09-28T15:51:28.342Z,100504.72
2022-09-28T15:54:00.758Z,100497.72
2022-09-28T15:56:30.832Z,100504.72
2022-09-28T15:59:19.119Z,100506.97
2022-09-28T16:01:50.274Z,100510.97
2022-09-28T16:04:41.329Z,100508.72
2022-09-28T16:07:32.435Z,100505.47
2022-09-28T16:10:07.406Z,100495.91
2022-09-28T16:12:40.427Z,100480.19
2022-09-28T16:15:18.932Z,100491.19
2022-09-28T16:17:52.755Z,100488.44
2022-09-28T16:20:32.272Z,100477.88
2022-09-28T16:23:08.016Z,100468.69
2022-09-28T16:25:41.377Z,100468.69
2022-09-28T16:28:29.539Z,100469.81
2022-09-28T16:31:05.453Z,100468.69
2022-09-28T16:34:11.841Z,100473.69
2022-09-28T16:36:47.892Z,100467.69
2022-09-28T16:39:19.042Z,100465.56
2022-09-28T16:41:54.839Z,100458.94
2022-09-28T16:44:28.836Z,100461.38
2022-09-28T16:47:03.274Z,100457.31
2022-09-28T16:49:34.849Z,100453.44
2022-09-28T16:52:04.768Z,100451.19
2022-09-28T16:54:53.285Z,100447.91
2022-09-28T16:57:23.792Z,100431.56
2022-09-28T16:59:53.646Z,100423.63
2022-09-28T17:02:46.269Z,100420.88
2022-09-28T17:05:21.968Z,100415.38
2022-09-28T17:07:57.129Z,100415.38
2022-09-28T17:10:31.147Z,100418.13
2022-09-28T17:13:02.295Z,100429.13
2022-09-28T17:15:32.830Z,100430.75
2022-09-28T17:18:03.421Z,100422.81
2022-09-28T17:20:35.051Z,100431.41
2022-09-28T17:23:05.371Z,100421.50
2022-09-28T17:25:35.805Z,100437.03
2022-09-28T17:28:07.392Z,100429.41
2022-09-28T17:30:37.714Z,100425.22
2022-09-28T17:33:07.627Z,100420.34
2022-09-28T17:35:39.841Z,100421.97
2022-09-28T17:38:10.180Z,100427.66
2022-09-28T17:40:40.117Z,100423.28
2022-09-28T17:43:10.097Z,100427.16
2022-09-28T17:45:43.393Z,100423.91
2022-09-28T17:48:20.362Z,100421.16
2022-09-28T17:50:50.958Z,100418.41
2022-09-28T17:53:21.301Z,100415.66
2022-09-28T17:55:51.238Z,100408.22
2022-09-28T17:58:24.584Z,100403.50
2022-09-28T18:00:54.374Z,100399.94
2022-09-28T18:03:24.988Z,100395.56
2022-09-28T18:06:06.274Z,100397.69
2022-09-28T18:08:36.319Z,100386.97
2022-09-28T18:11:05.896Z,100389.72
2022-09-28T18:13:35.577Z,100391.69
2022-09-28T18:16:05.549Z,100390.84
2022-09-28T18:18:42.060Z,100390.84
2022-09-28T18:21:12.498Z,100392.03
2022-09-28T18:23:42.760Z,100382.13
2022-09-28T18:26:21.688Z,100382.94
2022-09-28T18:28:51.412Z,100376.13
2022-09-28T18:31:22.087Z,100371.41
2022-09-28T18:33:52.109Z,100367.03
2022-09-28T18:36:22.205Z,100369.50
2022-09-28T18:38:52.871Z,100376.44
2022-09-28T18:41:23.234Z,100370.13
2022-09-28T18:43:53.204Z,100363.00
2022-09-28T18:46:23.408Z,100363.50
2022-09-28T18:48:53.748Z,100366.09
2022-09-28T18:51:23.571Z,100364.13
2022-09-28T18:53:53.818Z,100365.25
2022-09-28T18:56:24.380Z,100362.50
2022-09-28T18:58:54.741Z,100358.13
2022-09-28T19:01:29.976Z,100366.09
2022-09-28T19:04:04.076Z,100356.81
2022-09-28T19:06:34.000Z,100354.88
2022-09-28T19:09:04.659Z,100361.00
2022-09-28T19:11:34.659Z,100349.69
2022-09-28T19:14:05.701Z,100344.19
2022-09-28T19:16:38.204Z,100342.22
2022-09-28T19:19:08.726Z,100344.19
2022-09-28T19:21:38.461Z,100342.56
2022-09-28T19:24:08.087Z,100343.69
2022-09-28T19:26:38.370Z,100340.16
2022-09-28T19:29:08.285Z,100348.41
2022-09-28T19:31:38.122Z,100344.50
2022-09-28T19:34:10.488Z,100338.53
2022-09-28T19:36:43.322Z,100340.16
2022-09-28T19:39:16.272Z,100347.41
2022-09-28T19:41:49.993Z,100348.41
2022-09-28T19:44:26.624Z,100343.84
2022-09-28T19:47:08.842Z,100341.06
2022-09-28T19:49:40.070Z,100344.66
2022-09-28T19:52:17.470Z,100349.66
2022-09-28T19:54:58.659Z,100349.34
2022-09-28T19:57:30.470Z,100339.44
2022-09-28T20:00:02.814Z,100334.78
2022-09-28T20:02:37.278Z,100346.41
2022-09-28T20:05:07.271Z,100335.91
2022-09-28T20:07:38.778Z,100340.91
2022-09-28T20:10:09.637Z,100348.19
2022-09-28T20:12:39.950Z,100344.63
2022-09-28T20:15:12.242Z,100350.28
2022-09-28T20:17:42.685Z,100348.38
2022-09-28T20:20:13.086Z,100336.03
2022-09-28T20:22:44.472Z,100345.63
2022-09-28T20:25:14.989Z,100337.66
2022-09-28T20:27:45.003Z,100331.38
2022-09-28T20:30:15.156Z,100330.03
2022-09-28T20:32:49.376Z,100332.91
2022-09-28T20:35:32.360Z,100332.59
2022-09-28T20:38:10.030Z,100332.00
2022-09-28T20:40:40.061Z,100329.19
2022-09-28T20:43:09.851Z,100323.69
2022-09-28T20:45:39.596Z,100324.81
2022-09-28T20:48:09.216Z,100329.50
2022-09-28T20:50:38.829Z,100329.00
2022-09-28T20:53:08.357Z,100325.63
2022-09-28T20:55:38.056Z,100332.91
2022-09-28T20:58:08.116Z,100335.69
2022-09-28T21:00:37.953Z,100335.84
2022-09-28T21:03:07.606Z,100338.59
2022-09-28T21:05:38.601Z,100338.94
2022-09-28T21:08:08.936Z,100343.81
2022-09-28T21:10:39.472Z,100348.31
2022-09-28T21:13:11.318Z,100341.69
2022-09-28T21:15:41.378Z,100345.56
2022-09-28T21:18:11.497Z,100346.69
2022-09-28T21:20:48.441Z,100343.09
2022-09-28T21:23:23.945Z,100353.00
2022-09-28T21:26:04.802Z,100348.31
2022-09-28T21:28:35.067Z,100352.50
2022-09-28T21:31:06.815Z,100348.13
2022-09-28T21:33:36.648Z,100351.81
2022-09-28T21:36:07.773Z,100357.66
2022-09-28T21:38:38.189Z,100359.28
2022-09-28T21:41:07.878Z,100355.91
2022-09-28T21:43:38.010Z,100347.66
2022-09-28T21:46:08.584Z,100352.00
2022-09-28T21:48:42.203Z,100346.81
2022-09-28T21:51:15.524Z,100355.06
2022-09-28T21:53:46.142Z,100351.81
2022-09-28T21:56:16.472Z,100354.41
2022-09-28T21:58:46.836Z,100349.06
2022-09-28T22:01:22.267Z,100345.19
2022-09-28T22:03:54.257Z,100352.00
2022-09-28T22:06:25.582Z,100353.44
2022-09-28T22:08:55.879Z,100348.56
2022-09-28T22:11:27.038Z,100348.56
2022-09-28T22:13:58.850Z,100345.53
2022-09-28T22:16:31.120Z,100348.56
2022-09-28T22:19:02.062Z,100356.31
2022-09-28T22:21:34.704Z,100352.16
2022-09-28T22:24:08.258Z,100361.03
2022-09-28T22:26:40.070Z,100364.63
2022-09-28T22:29:11.960Z,100366.75
2022-09-28T22:31:43.590Z,100365.94
2022-09-28T22:34:13.316Z,100369.34
2022-09-28T22:36:43.311Z,100369.84
2022-09-28T22:39:13.147Z,100376.03
2022-09-28T22:41:43.975Z,100376.97
2022-09-28T22:44:14.238Z,100373.53
2022-09-28T22:46:44.929Z,100369.47
2022-09-28T22:49:15.689Z,100360.06
2022-09-28T22:52:23.210Z,100364.69
2022-09-28T22:54:53.959Z,100366.56
2022-09-28T23:01:02.848Z,100365.69
2022-09-28T23:03:33.729Z,100361.44
2022-09-28T23:06:04.983Z,100359.44
2022-09-28T23:08:39.163Z,100363.81
2022-09-28T23:11:09.818Z,100362.69
2022-09-28T23:13:40.561Z,100360.75
2022-09-28T23:16:15.940Z,100364.31
2022-09-28T23:18:46.083Z,100361.56
2022-09-28T23:21:21.411Z,100363.50
2022-09-28T23:23:57.854Z,100366.44
2022-09-28T23:26:31.303Z,100363.91
2022-09-28T23:29:04.038Z,100368.56
2022-09-28T23:31:35.667Z,100373.56
2022-09-28T23:34:08.745Z,100371.63
2022-09-28T23:36:39.545Z,100374.19
2022-09-28T23:39:09.959Z,100378.59
2022-09-28T23:41:41.976Z,100380.84
2022-09-28T23:44:12.243Z,100378.88
2022-09-28T23:46:42.872Z,100388.75
2022-09-28T23:49:13.761Z,100392.66
2022-09-28T23:51:47.409Z,100395.41
2022-09-28T23:54:18.683Z,100396.84
2022-09-28T23:56:49.554Z,100401.09
2022-09-28T23:59:20.408Z,100402.84
